createdAt,value
2022-08-05T00:00:00.602Z,196.217
2022-08-05T00:00:20.320Z,196.25
2022-08-05T00:00:46.670Z,196.25
2022-08-05T00:01:20.050Z,196.217
2022-08-05T00:01:28.588Z,196.217
2022-08-05T00:01:48.864Z,196.25
2022-08-05T00:02:07.738Z,196.25
2022-08-05T00:02:20.835Z,196.25
2022-08-05T00:02:40.925Z,196.217
2022-08-05T00:03:00.943Z,196.217
2022-08-05T00:03:21.037Z,196.25
2022-08-05T00:03:41.137Z,196.217
2022-08-05T00:04:01.203Z,196.217
2022-08-05T00:04:21.269Z,196.25
2022-08-05T00:04:41.363Z,196.217
2022-08-05T00:05:05.717Z,196.25
2022-08-05T00:06:01.839Z,196.217
2022-08-05T00:06:04.624Z,196.217
2022-08-05T00:06:20.275Z,196.217
2022-08-05T00:06:32.311Z,196.2
2022-08-05T00:06:41.919Z,196.217
2022-08-05T00:07:27.327Z,196.25
2022-08-05T00:07:58.894Z,196.217
2022-08-05T00:08:01.030Z,196.25
2022-08-05T00:08:02.835Z,196.25
2022-08-05T00:08:34.569Z,196.25
2022-08-05T00:08:42.307Z,196.217
2022-08-05T00:09:02.371Z,196.267
2022-08-05T00:09:22.471Z,196.217
2022-08-05T00:09:42.548Z,196.217
2022-08-05T00:10:02.638Z,196.2
2022-08-05T00:10:22.729Z,196.217
2022-08-05T00:10:42.815Z,196.25
2022-08-05T00:11:02.876Z,196.217
2022-08-05T00:11:30.598Z,196.217
2022-08-05T00:11:48.315Z,196.217
2022-08-05T00:12:03.047Z,196.25
2022-08-05T00:12:23.106Z,196.25
2022-08-05T00:12:56.607Z,196.217
2022-08-05T00:13:03.266Z,196.217
2022-08-05T00:13:39.206Z,196.217
2022-08-05T00:13:43.412Z,196.25
2022-08-05T00:14:12.788Z,196.217
2022-08-05T00:14:27.744Z,196.25
2022-08-05T00:14:43.666Z,196.267
2022-08-05T00:15:53.986Z,196.2
2022-08-05T00:15:55.300Z,196.25
2022-08-05T00:15:55.669Z,196.217
2022-08-05T00:16:04.016Z,196.217
2022-08-05T00:16:36.175Z,196.25
2022-08-05T00:16:52.820Z,196.217
2022-08-05T00:17:04.267Z,196.217
2022-08-05T00:17:24.307Z,196.2
2022-08-05T00:17:44.373Z,196.167
2022-08-05T00:18:04.448Z,196.217
2022-08-05T00:18:24.517Z,196.2
2022-08-05T00:18:44.605Z,196.2
2022-08-05T00:19:04.667Z,196.217
2022-08-05T00:19:33.537Z,196.25
2022-08-05T00:19:45.877Z,196.167
2022-08-05T00:20:04.912Z,196.217
2022-08-05T00:20:28.760Z,196.2
2022-08-05T00:20:45.043Z,196.217
2022-08-05T00:21:05.135Z,196.217
2022-08-05T00:21:25.222Z,196.167
2022-08-05T00:21:45.360Z,196.2
2022-08-05T00:22:05.327Z,196.217
2022-08-05T00:22:25.415Z,196.217
2022-08-05T00:22:47.011Z,196.217
2022-08-05T00:23:13.051Z,196.217
2022-08-05T00:23:44.183Z,196.217
2022-08-05T00:23:53.628Z,196.2
2022-08-05T00:24:10.423Z,196.217
2022-08-05T00:24:30.766Z,196.217
2022-08-05T00:24:45.989Z,196.25
2022-08-05T00:25:08.416Z,196.217
2022-08-05T00:25:26.142Z,196.217
2022-08-05T00:25:46.413Z,196.217
2022-08-05T00:26:06.311Z,196.217
2022-08-05T00:26:26.404Z,196.25
2022-08-05T00:26:50.761Z,196.267
2022-08-05T00:27:10.463Z,196.25
2022-08-05T00:27:35.673Z,196.167
2022-08-05T00:27:46.697Z,196.217
2022-08-05T00:28:06.764Z,196.2
2022-08-05T00:28:29.756Z,196.2
2022-08-05T00:28:46.932Z,196.217
2022-08-05T00:29:07.023Z,196.217
2022-08-05T00:29:27.657Z,196.217
2022-08-05T00:29:47.191Z,196.217
2022-08-05T00:30:11.266Z,196.2
2022-08-05T00:30:31.939Z,196.25
2022-08-05T00:30:47.424Z,196.25
2022-08-05T00:31:07.805Z,196.25
2022-08-05T00:31:53.827Z,196.25
2022-08-05T00:32:11.063Z,196.2
2022-08-05T00:32:12.197Z,196.25
2022-08-05T00:32:27.773Z,196.167
2022-08-05T00:32:47.850Z,196.25
2022-08-05T00:34:42.181Z,196.2
2022-08-05T00:34:53.307Z,196.2
2022-08-05T00:34:55.859Z,196.2
2022-08-05T00:34:56.560Z,196.217
2022-08-05T00:34:56.561Z,196.25
2022-08-05T00:35:05.065Z,196.217
2022-08-05T00:35:08.404Z,196.2
2022-08-05T00:35:33.433Z,196.217
2022-08-05T00:36:16.199Z,196.217
2022-08-05T00:36:16.440Z,196.2
2022-08-05T00:37:09.985Z,196.25
2022-08-05T00:37:11.459Z,196.217
2022-08-05T00:37:13.542Z,196.217
2022-08-05T00:37:50.542Z,196.217
2022-08-05T00:37:52.978Z,196.217
2022-08-05T00:38:09.483Z,196.217
2022-08-05T00:38:33.955Z,196.25
2022-08-05T00:38:49.226Z,196.25
2022-08-05T00:39:13.726Z,196.217
2022-08-05T00:39:29.581Z,196.2
2022-08-05T00:39:58.706Z,196.217
2022-08-05T00:40:09.608Z,196.25
2022-08-05T00:40:29.640Z,196.217
2022-08-05T00:40:51.998Z,196.2
2022-08-05T00:41:11.650Z,196.2
2022-08-05T00:41:29.882Z,196.217
2022-08-05T00:41:55.103Z,196.217
2022-08-05T00:42:10.022Z,196.25
2022-08-05T00:42:31.567Z,196.217
2022-08-05T00:42:50.185Z,196.2
2022-08-05T00:43:10.279Z,196.217
2022-08-05T00:43:30.349Z,196.2
2022-08-05T00:43:50.444Z,196.217
2022-08-05T00:44:10.515Z,196.217
2022-08-05T00:44:31.628Z,196.217
2022-08-05T00:44:50.678Z,196.217
2022-08-05T00:45:11.797Z,196.2
2022-08-05T00:45:42.913Z,196.217
2022-08-05T00:45:50.925Z,196.217
2022-08-05T00:46:11.001Z,196.25
2022-08-05T00:46:42.702Z,196.25
2022-08-05T00:46:53.926Z,196.25
2022-08-05T00:47:11.984Z,196.25
2022-08-05T00:47:53.246Z,196.217
2022-08-05T00:47:57.018Z,196.217
2022-08-05T00:48:11.496Z,196.25
2022-08-05T00:48:31.816Z,196.217
2022-08-05T00:48:51.647Z,196.2
2022-08-05T00:49:14.083Z,196.217
2022-08-05T00:49:32.778Z,196.25
2022-08-05T00:49:52.018Z,196.217
2022-08-05T00:50:11.936Z,196.217
2022-08-05T00:50:32.017Z,196.25
2022-08-05T00:50:52.122Z,196.217
2022-08-05T00:51:51.751Z,196.25
2022-08-05T00:51:51.774Z,196.25
2022-08-05T00:51:52.443Z,196.217
2022-08-05T00:52:12.457Z,196.217
2022-08-05T00:52:32.550Z,196.217
2022-08-05T00:52:53.253Z,196.217
2022-08-05T00:53:59.895Z,196.217
2022-08-05T00:54:01.296Z,196.2
2022-08-05T00:54:02.447Z,196.217
2022-08-05T00:54:12.992Z,196.2
2022-08-05T00:54:33.076Z,196.2
2022-08-05T00:54:53.163Z,196.25
2022-08-05T00:55:13.261Z,196.217
2022-08-05T00:55:42.159Z,196.2
2022-08-05T00:55:53.402Z,196.167
2022-08-05T00:56:13.492Z,196.25
2022-08-05T00:56:33.577Z,196.25
2022-08-05T00:56:53.759Z,196.217
2022-08-05T00:57:13.748Z,196.217
2022-08-05T00:57:55.676Z,196.217
2022-08-05T00:57:57.957Z,196.217
2022-08-05T00:58:14.046Z,196.217
2022-08-05T00:58:34.144Z,196.2
2022-08-05T00:58:54.193Z,196.217
2022-08-05T00:59:14.258Z,196.217
2022-08-05T00:59:34.554Z,196.217
2022-08-05T00:59:54.418Z,196.217
2022-08-05T01:00:14.483Z,196.217
2022-08-05T01:00:34.639Z,196.217
2022-08-05T01:00:54.785Z,196.25
2022-08-05T01:01:14.845Z,196.217
2022-08-05T01:01:48.335Z,196.25
2022-08-05T01:01:55.090Z,196.217
2022-08-05T01:02:14.959Z,196.217
2022-08-05T01:02:35.036Z,196.217
2022-08-05T01:02:55.140Z,196.2
2022-08-05T01:03:22.643Z,196.217
2022-08-05T01:03:35.308Z,196.217
2022-08-05T01:03:55.411Z,196.2
2022-08-05T01:04:15.929Z,196.217
2022-08-05T01:04:35.558Z,196.2
2022-08-05T01:04:55.630Z,196.217
2022-08-05T01:05:15.720Z,196.2
2022-08-05T01:05:35.815Z,196.2
2022-08-05T01:05:55.891Z,196.2
2022-08-05T01:06:15.988Z,196.2
2022-08-05T01:06:36.088Z,196.2
2022-08-05T01:06:56.234Z,196.217
2022-08-05T01:07:31.488Z,196.2
2022-08-05T01:07:36.278Z,196.2
2022-08-05T01:08:40.529Z,196.2
2022-08-05T01:08:42.157Z,196.2
2022-08-05T01:08:42.935Z,196.2
2022-08-05T01:08:56.603Z,196.167
2022-08-05T01:09:17.244Z,196.2
2022-08-05T01:09:36.759Z,196.2
2022-08-05T01:09:56.853Z,196.2
2022-08-05T01:10:16.952Z,196.2
2022-08-05T01:10:37.025Z,196.2
2022-08-05T01:10:57.926Z,196.2
2022-08-05T01:11:22.659Z,196.2
2022-08-05T01:11:37.669Z,196.167
2022-08-05T01:12:00.724Z,196.217
2022-08-05T01:12:18.639Z,196.167
2022-08-05T01:12:37.511Z,196.167
2022-08-05T01:13:12.761Z,196.2
2022-08-05T01:13:22.182Z,196.2
2022-08-05T01:13:58.241Z,196.2
2022-08-05T01:13:59.739Z,196.15
2022-08-05T01:14:17.899Z,196.2
2022-08-05T01:14:37.965Z,196.167
2022-08-05T01:14:58.050Z,196.2
2022-08-05T01:15:35.111Z,196.167
2022-08-05T01:15:38.229Z,196.167
2022-08-05T01:15:58.308Z,196.2
2022-08-05T01:16:23.009Z,196.2
2022-08-05T01:16:38.464Z,196.167
2022-08-05T01:16:58.584Z,196.2
2022-08-05T01:17:18.588Z,196.167
2022-08-05T01:17:40.179Z,196.2
2022-08-05T01:17:58.733Z,196.2
2022-08-05T01:18:18.809Z,196.2
2022-08-05T01:18:38.856Z,196.167
2022-08-05T01:18:58.940Z,196.2
2022-08-05T01:19:19.002Z,196.217
2022-08-05T01:20:00.893Z,196.167
2022-08-05T01:20:02.890Z,196.167
2022-08-05T01:20:19.205Z,196.2
2022-08-05T01:20:39.253Z,196.2
2022-08-05T01:20:59.330Z,196.167
2022-08-05T01:21:22.665Z,196.2
2022-08-05T01:21:39.467Z,196.2
2022-08-05T01:21:59.616Z,196.2
2022-08-05T01:22:24.456Z,196.2
2022-08-05T01:22:39.733Z,196.167
2022-08-05T01:22:59.814Z,196.2
2022-08-05T01:23:22.735Z,196.2
2022-08-05T01:23:39.974Z,196.167
2022-08-05T01:24:00.060Z,196.167
2022-08-05T01:24:20.137Z,196.2
2022-08-05T01:24:40.224Z,196.2
2022-08-05T01:25:00.315Z,196.133
2022-08-05T01:25:20.421Z,196.2
2022-08-05T01:25:41.689Z,196.2
2022-08-05T01:26:00.582Z,196.2
2022-08-05T01:26:20.639Z,196.167
2022-08-05T01:26:40.726Z,196.2
2022-08-05T01:27:00.906Z,196.167
2022-08-05T01:27:22.227Z,196.167
2022-08-05T01:27:55.372Z,196.2
2022-08-05T01:28:01.368Z,196.167
2022-08-05T01:28:21.137Z,196.15
2022-08-05T01:28:41.215Z,196.217
2022-08-05T01:29:04.295Z,196.2
2022-08-05T01:29:23.101Z,196.15
2022-08-05T01:29:42.926Z,196.2
2022-08-05T01:30:01.574Z,196.15
2022-08-05T01:30:34.760Z,196.133
2022-08-05T01:30:53.583Z,196.133
2022-08-05T01:31:03.117Z,196.133
2022-08-05T01:31:21.830Z,196.133
2022-08-05T01:31:42.639Z,196.133
2022-08-05T01:32:02.086Z,196.133
2022-08-05T01:32:22.101Z,196.133
2022-08-05T01:32:42.186Z,196.133
2022-08-05T01:33:02.260Z,196.133
2022-08-05T01:33:22.356Z,196.133
2022-08-05T01:33:42.457Z,196.133
2022-08-05T01:34:02.517Z,196.133
2022-08-05T01:34:22.611Z,196.15
2022-08-05T01:34:42.713Z,196.133
2022-08-05T01:35:02.799Z,196.133
2022-08-05T01:35:51.806Z,196.1
2022-08-05T01:35:52.010Z,196.133
2022-08-05T01:36:03.050Z,196.133
2022-08-05T01:36:27.901Z,196.133
2022-08-05T01:36:46.899Z,196.133
2022-08-05T01:37:03.381Z,196.133
2022-08-05T01:37:24.966Z,196.1
2022-08-05T01:37:44.480Z,196.133
2022-08-05T01:38:03.572Z,196.133
2022-08-05T01:38:27.581Z,196.133
2022-08-05T01:38:43.771Z,196.133
2022-08-05T01:39:03.882Z,196.133
2022-08-05T01:39:45.617Z,196.15
2022-08-05T01:39:46.778Z,196.1
2022-08-05T01:40:04.126Z,196.1
2022-08-05T01:40:28.007Z,196.133
2022-08-05T01:40:44.237Z,196.15
2022-08-05T01:41:04.324Z,196.133
2022-08-05T01:41:25.696Z,196.1
2022-08-05T01:41:44.586Z,196.133
2022-08-05T01:42:04.636Z,196.133
2022-08-05T01:42:24.649Z,196.1
2022-08-05T01:42:44.749Z,196.15
2022-08-05T01:43:04.801Z,196.15
2022-08-05T01:43:24.862Z,196.1
2022-08-05T01:43:44.972Z,196.1
2022-08-05T01:44:05.070Z,196.1
2022-08-05T01:44:25.120Z,196.133
2022-08-05T01:44:45.712Z,196.1
2022-08-05T01:45:05.295Z,196.15
2022-08-05T01:45:25.374Z,196.2
2022-08-05T01:45:45.457Z,196.133
2022-08-05T01:46:07.370Z,196.133
2022-08-05T01:46:42.209Z,196.133
2022-08-05T01:46:46.397Z,196.2
2022-08-05T01:47:06.772Z,196.2
2022-08-05T01:47:25.885Z,196.167
2022-08-05T01:47:45.969Z,196.167
2022-08-05T01:48:10.372Z,196.2
2022-08-05T01:48:26.094Z,196.167
2022-08-05T01:48:46.173Z,196.217
2022-08-05T01:49:23.381Z,196.167
2022-08-05T01:49:26.322Z,196.2
2022-08-05T01:50:02.160Z,196.167
2022-08-05T01:50:06.456Z,196.167
2022-08-05T01:50:28.520Z,196.2
2022-08-05T01:50:50.915Z,196.2
2022-08-05T01:51:12.152Z,196.2
2022-08-05T01:51:26.816Z,196.2
2022-08-05T01:51:51.889Z,196.167
2022-08-05T01:52:17.583Z,196.2
2022-08-05T01:52:27.020Z,196.2
2022-08-05T01:52:49.939Z,196.2
2022-08-05T01:53:07.177Z,196.217
2022-08-05T01:53:57.448Z,196.2
2022-08-05T01:53:57.468Z,196.217
2022-08-05T01:54:07.401Z,196.25
2022-08-05T01:54:27.500Z,196.25
2022-08-05T01:54:47.539Z,196.25
2022-08-05T01:55:07.620Z,196.2
2022-08-05T01:55:27.697Z,196.25
2022-08-05T01:55:47.766Z,196.217
2022-08-05T01:56:08.913Z,196.2
2022-08-05T01:58:09.704Z,196.217
2022-08-05T01:58:10.036Z,196.217
2022-08-05T01:58:12.154Z,196.25
2022-08-05T01:58:12.973Z,196.217
2022-08-05T01:58:15.350Z,196.25
2022-08-05T01:58:29.257Z,196.2
2022-08-05T01:58:29.804Z,196.25
2022-08-05T01:58:48.690Z,196.267
2022-08-05T01:59:08.623Z,196.267
2022-08-05T01:59:28.671Z,196.267
2022-08-05T01:59:48.767Z,196.25
2022-08-05T02:00:11.719Z,196.267
2022-08-05T02:00:30.054Z,196.25
2022-08-05T02:00:49.034Z,196.267
2022-08-05T02:01:09.326Z,196.267
2022-08-05T02:01:29.241Z,196.25
2022-08-05T02:01:49.337Z,196.217
2022-08-05T02:02:09.391Z,196.25
2022-08-05T02:02:29.431Z,196.217
2022-08-05T02:02:54.307Z,196.217
2022-08-05T02:03:24.601Z,196.2
2022-08-05T02:03:31.773Z,196.2
2022-08-05T02:03:49.673Z,196.25
2022-08-05T02:04:10.295Z,196.217
2022-08-05T02:04:29.975Z,196.217
2022-08-05T02:04:49.921Z,196.25
2022-08-05T02:05:11.785Z,196.25
2022-08-05T02:05:30.072Z,196.2
2022-08-05T02:05:50.160Z,196.2
2022-08-05T02:06:37.272Z,196.25
2022-08-05T02:06:37.563Z,196.267
2022-08-05T02:06:50.399Z,196.2
2022-08-05T02:07:10.533Z,196.25
2022-08-05T02:07:30.670Z,196.217
2022-08-05T02:08:00.952Z,196.217
2022-08-05T02:08:10.706Z,196.217
2022-08-05T02:08:31.649Z,196.217
2022-08-05T02:08:57.829Z,196.2
2022-08-05T02:09:10.936Z,196.167
2022-08-05T02:09:31.019Z,196.2
2022-08-05T02:09:51.214Z,196.133
2022-08-05T02:10:11.214Z,196.1
2022-08-05T02:10:31.284Z,196.15
2022-08-05T02:10:51.316Z,196.133
2022-08-05T02:11:11.801Z,196.1
2022-08-05T02:11:33.135Z,196.083
2022-08-05T02:11:52.500Z,196.083
2022-08-05T02:12:11.727Z,196.1
2022-08-05T02:12:32.779Z,196.133
2022-08-05T02:12:51.828Z,196.083
2022-08-05T02:13:15.776Z,196.1
2022-08-05T02:13:48.649Z,196.133
2022-08-05T02:13:53.611Z,196.1
2022-08-05T02:14:12.700Z,196.1
2022-08-05T02:14:32.344Z,196.1
2022-08-05T02:14:52.262Z,196.133
2022-08-05T02:15:12.689Z,196.133
2022-08-05T02:15:33.550Z,196.133
2022-08-05T02:15:52.511Z,196.133
2022-08-05T02:16:16.351Z,196.133
2022-08-05T02:16:32.625Z,196.083
2022-08-05T02:16:53.262Z,196.1
2022-08-05T02:17:29.938Z,196.083
2022-08-05T02:18:27.712Z,196.083
2022-08-05T02:18:28.687Z,196.083
2022-08-05T02:18:32.645Z,196.05
2022-08-05T02:18:35.053Z,196.1
2022-08-05T02:18:53.118Z,196.1
2022-08-05T02:19:13.207Z,196.133
2022-08-05T02:19:33.481Z,196.133
2022-08-05T02:19:53.326Z,196.133
2022-08-05T02:20:13.369Z,196.133
2022-08-05T02:20:33.461Z,196.1
2022-08-05T02:20:53.533Z,196.2
2022-08-05T02:21:15.395Z,196.2
2022-08-05T02:21:43.340Z,196.217
2022-08-05T02:21:53.790Z,196.2
2022-08-05T02:22:17.505Z,196.2
2022-08-05T02:22:33.922Z,196.2
2022-08-05T02:22:54.008Z,196.2
2022-08-05T02:23:14.090Z,196.15
2022-08-05T02:23:35.698Z,196.167
2022-08-05T02:23:54.276Z,196.2
2022-08-05T02:24:14.350Z,196.217
2022-08-05T02:24:34.412Z,196.2
2022-08-05T02:24:54.470Z,196.2
2022-08-05T02:25:14.599Z,196.2
2022-08-05T02:25:35.941Z,196.2
2022-08-05T02:25:54.737Z,196.167
2022-08-05T02:26:14.826Z,196.2
2022-08-05T02:26:34.881Z,196.217
2022-08-05T02:26:55.158Z,196.217
2022-08-05T02:27:15.135Z,196.25
2022-08-05T02:27:58.059Z,196.217
2022-08-05T02:27:59.538Z,196.267
2022-08-05T02:28:15.308Z,196.25
2022-08-05T02:28:41.448Z,196.217
2022-08-05T02:28:55.421Z,196.267
2022-08-05T02:29:21.363Z,196.25
2022-08-05T02:29:58.379Z,196.267
2022-08-05T02:29:59.441Z,196.267
2022-08-05T02:30:15.700Z,196.3
2022-08-05T02:30:35.798Z,196.3
2022-08-05T02:30:56.607Z,196.317
2022-08-05T02:31:15.978Z,196.3
2022-08-05T02:31:36.014Z,196.317
2022-08-05T02:31:56.097Z,196.3
2022-08-05T02:32:23.856Z,196.3
2022-08-05T02:32:36.246Z,196.3
2022-08-05T02:32:56.328Z,196.317
2022-08-05T02:33:16.438Z,196.3
2022-08-05T02:33:38.807Z,196.267
2022-08-05T02:33:57.288Z,196.3
2022-08-05T02:34:16.664Z,196.3
2022-08-05T02:34:36.767Z,196.25
2022-08-05T02:34:56.839Z,196.317
2022-08-05T02:35:19.001Z,196.317
2022-08-05T02:35:37.597Z,196.267
2022-08-05T02:35:59.115Z,196.3
2022-08-05T02:36:17.152Z,196.317
2022-08-05T02:36:37.240Z,196.3
2022-08-05T02:36:57.286Z,196.3
2022-08-05T02:37:17.425Z,196.3
2022-08-05T02:37:37.400Z,196.267
2022-08-05T02:38:00.109Z,196.3
2022-08-05T02:38:19.359Z,196.3
2022-08-05T02:38:37.581Z,196.3
2022-08-05T02:38:57.856Z,196.267
2022-08-05T02:39:17.774Z,196.267
2022-08-05T02:39:37.877Z,196.3
2022-08-05T02:39:57.886Z,196.3
2022-08-05T02:40:17.969Z,196.267
2022-08-05T02:40:38.066Z,196.3
2022-08-05T02:40:58.152Z,196.3
2022-08-05T02:41:18.224Z,196.3
2022-08-05T02:41:57.956Z,196.3
2022-08-05T02:42:01.281Z,196.333
2022-08-05T02:42:25.811Z,196.267
2022-08-05T02:42:38.553Z,196.3
2022-08-05T02:42:58.658Z,196.317
2022-08-05T02:43:18.742Z,196.3
2022-08-05T02:43:38.829Z,196.267
2022-08-05T02:44:02.497Z,196.3
2022-08-05T02:44:18.991Z,196.267
2022-08-05T02:44:39.036Z,196.3
2022-08-05T02:44:59.075Z,196.267
2022-08-05T02:45:19.164Z,196.267
2022-08-05T02:45:51.539Z,196.3
2022-08-05T02:46:01.107Z,196.267
2022-08-05T02:46:19.425Z,196.267
2022-08-05T02:46:53.544Z,196.25
2022-08-05T02:47:00.908Z,196.25
2022-08-05T02:47:19.756Z,196.267
2022-08-05T02:48:11.449Z,196.3
2022-08-05T02:48:11.975Z,196.3
2022-08-05T02:48:19.901Z,196.3
2022-08-05T02:48:39.971Z,196.317
2022-08-05T02:49:00.028Z,196.3
2022-08-05T02:49:20.120Z,196.317
2022-08-05T02:49:40.696Z,196.3
2022-08-05T02:50:00.283Z,196.3
2022-08-05T02:50:20.375Z,196.3
2022-08-05T02:50:43.521Z,196.3
2022-08-05T02:51:00.519Z,196.3
2022-08-05T02:51:28.115Z,196.3
2022-08-05T02:52:03.012Z,196.25
2022-08-05T02:52:03.232Z,196.267
2022-08-05T02:52:29.754Z,196.25
2022-08-05T02:52:40.916Z,196.267
2022-08-05T02:53:00.982Z,196.25
2022-08-05T02:53:21.040Z,196.25
2022-08-05T02:53:41.154Z,196.25
2022-08-05T02:54:03.975Z,196.267
2022-08-05T02:54:34.968Z,196.267
2022-08-05T02:54:42.389Z,196.25
2022-08-05T02:55:01.695Z,196.267
2022-08-05T02:55:53.850Z,196.267
2022-08-05T02:55:54.139Z,196.267
2022-08-05T02:56:02.255Z,196.267
2022-08-05T02:56:21.786Z,196.267
2022-08-05T02:56:41.859Z,196.25
2022-08-05T02:57:01.948Z,196.3
2022-08-05T02:58:10.336Z,196.3
2022-08-05T02:58:11.485Z,196.267
2022-08-05T02:58:11.485Z,196.3
2022-08-05T02:58:22.637Z,196.267
2022-08-05T02:58:43.773Z,196.3
2022-08-05T02:59:02.407Z,196.217
2022-08-05T02:59:26.904Z,196.267
2022-08-05T02:59:48.112Z,196.267
2022-08-05T03:00:02.628Z,196.317
2022-08-05T03:00:22.693Z,196.3
2022-08-05T03:00:45.994Z,196.3
2022-08-05T03:01:02.972Z,196.3
2022-08-05T03:01:22.996Z,196.317
2022-08-05T03:01:43.136Z,196.3
2022-08-05T03:02:03.218Z,196.317
2022-08-05T03:02:23.310Z,196.267
2022-08-05T03:02:43.308Z,196.3
2022-08-05T03:03:03.400Z,196.3
2022-08-05T03:03:23.816Z,196.3
2022-08-05T03:04:02.613Z,196.3
2022-08-05T03:04:13.991Z,196.317
2022-08-05T03:04:23.681Z,196.267
2022-08-05T03:04:43.787Z,196.267
2022-08-05T03:05:03.864Z,196.317
2022-08-05T03:06:53.879Z,196.25
2022-08-05T03:06:54.361Z,196.267
2022-08-05T03:06:54.425Z,196.25
2022-08-05T03:06:55.446Z,196.3
2022-08-05T03:06:57.159Z,196.267
2022-08-05T03:07:04.340Z,196.25
2022-08-05T03:07:48.450Z,196.25
2022-08-05T03:08:04.579Z,196.217
2022-08-05T03:08:08.880Z,196.217
2022-08-05T03:08:29.888Z,196.217
2022-08-05T03:08:44.813Z,196.2
2022-08-05T03:09:04.906Z,196.217
2022-08-05T03:09:36.296Z,196.25
2022-08-05T03:09:51.490Z,196.267
2022-08-05T03:10:05.156Z,196.267
2022-08-05T03:10:25.299Z,196.267
2022-08-05T03:11:41.211Z,196.25
2022-08-05T03:11:54.641Z,196.3
2022-08-05T03:11:55.278Z,196.267
2022-08-05T03:11:55.280Z,196.3
2022-08-05T03:12:05.627Z,196.3
2022-08-05T03:12:25.723Z,196.3
2022-08-05T03:12:45.737Z,196.317
2022-08-05T03:13:27.567Z,196.3
2022-08-05T03:13:51.560Z,196.3
2022-08-05T03:14:06.006Z,196.267
2022-08-05T03:14:26.263Z,196.267
2022-08-05T03:14:48.104Z,196.3
2022-08-05T03:15:06.686Z,196.3
2022-08-05T03:15:26.307Z,196.3
2022-08-05T03:15:46.373Z,196.217
2022-08-05T03:16:06.469Z,196.267
2022-08-05T03:16:26.523Z,196.267
2022-08-05T03:16:46.589Z,196.267
2022-08-05T03:17:09.086Z,196.25
2022-08-05T03:17:26.951Z,196.267
2022-08-05T03:17:46.803Z,196.25
2022-08-05T03:18:06.883Z,196.25
2022-08-05T03:18:30.009Z,196.267
2022-08-05T03:18:47.084Z,196.267
2022-08-05T03:19:12.928Z,196.267
2022-08-05T03:19:34.611Z,196.267
2022-08-05T03:19:47.277Z,196.25
2022-08-05T03:20:07.387Z,196.267
2022-08-05T03:20:27.476Z,196.3
2022-08-05T03:20:48.690Z,196.267
2022-08-05T03:21:07.636Z,196.3
2022-08-05T03:21:28.692Z,196.25
2022-08-05T03:21:49.661Z,196.267
2022-08-05T03:22:16.813Z,196.3
2022-08-05T03:22:32.434Z,196.267
2022-08-05T03:22:50.029Z,196.3
2022-08-05T03:23:08.136Z,196.267
2022-08-05T03:23:28.201Z,196.3
2022-08-05T03:23:48.314Z,196.317
2022-08-05T03:24:08.407Z,196.3
2022-08-05T03:24:30.469Z,196.3
2022-08-05T03:24:50.739Z,196.267
2022-08-05T03:25:33.847Z,196.317
2022-08-05T03:25:34.137Z,196.267
2022-08-05T03:26:04.663Z,196.317
2022-08-05T03:26:31.659Z,196.3
2022-08-05T03:26:32.307Z,196.317
2022-08-05T03:26:49.391Z,196.317
2022-08-05T03:27:09.065Z,196.267
2022-08-05T03:27:29.736Z,196.3
2022-08-05T03:27:59.856Z,196.3
2022-08-05T03:28:09.335Z,196.317
2022-08-05T03:28:29.418Z,196.317
2022-08-05T03:28:49.519Z,196.333
2022-08-05T03:29:12.444Z,196.3
2022-08-05T03:29:44.520Z,196.317
2022-08-05T03:30:08.765Z,196.317
2022-08-05T03:30:09.837Z,196.3
2022-08-05T03:30:33.945Z,196.317
2022-08-05T03:30:50.900Z,196.317
2022-08-05T03:31:10.053Z,196.317
2022-08-05T03:31:56.188Z,196.333
2022-08-05T03:31:57.393Z,196.317
2022-08-05T03:32:10.266Z,196.333
2022-08-05T03:32:30.955Z,196.333
2022-08-05T03:32:50.406Z,196.3
2022-08-05T03:33:10.499Z,196.333
2022-08-05T03:33:32.219Z,196.317
2022-08-05T03:33:52.985Z,196.317
2022-08-05T03:34:10.753Z,196.317
2022-08-05T03:34:30.811Z,196.317
2022-08-05T03:34:51.669Z,196.3
2022-08-05T03:35:10.981Z,196.267
2022-08-05T03:35:33.774Z,196.267
2022-08-05T03:35:51.619Z,196.3
2022-08-05T03:36:12.122Z,196.3
2022-08-05T03:36:31.285Z,196.267
2022-08-05T03:36:51.360Z,196.3
2022-08-05T03:37:11.425Z,196.317
2022-08-05T03:37:31.628Z,196.3
2022-08-05T03:37:51.617Z,196.3
2022-08-05T03:38:11.681Z,196.3
2022-08-05T03:38:33.151Z,196.267
2022-08-05T03:38:53.305Z,196.317
2022-08-05T03:39:19.829Z,196.3
2022-08-05T03:39:38.208Z,196.267
2022-08-05T03:39:58.583Z,196.3
2022-08-05T03:40:12.314Z,196.3
2022-08-05T03:40:32.819Z,196.267
2022-08-05T03:40:52.397Z,196.3
2022-08-05T03:41:12.451Z,196.267
2022-08-05T03:41:33.171Z,196.3
2022-08-05T03:41:52.740Z,196.267
2022-08-05T03:42:12.685Z,196.3
2022-08-05T03:42:52.120Z,196.317
2022-08-05T03:42:53.149Z,196.3
2022-08-05T03:43:59.105Z,196.3
2022-08-05T03:44:08.698Z,196.267
2022-08-05T03:44:09.871Z,196.3
2022-08-05T03:44:13.211Z,196.3
2022-08-05T03:44:33.298Z,196.267
2022-08-05T03:44:53.379Z,196.3
2022-08-05T03:45:21.564Z,196.267
2022-08-05T03:45:57.092Z,196.3
2022-08-05T03:45:58.290Z,196.3
2022-08-05T03:46:13.669Z,196.3
2022-08-05T03:46:33.749Z,196.267
2022-08-05T03:46:53.827Z,196.317
2022-08-05T03:47:13.937Z,196.3
2022-08-05T03:47:35.378Z,196.267
2022-08-05T03:47:57.196Z,196.3
2022-08-05T03:48:14.166Z,196.3
2022-08-05T03:48:35.567Z,196.267
2022-08-05T03:48:54.368Z,196.3
2022-08-05T03:49:14.964Z,196.3
2022-08-05T03:49:52.080Z,196.3
2022-08-05T03:49:54.618Z,196.3
2022-08-05T03:50:14.705Z,196.3
2022-08-05T03:50:34.762Z,196.3
2022-08-05T03:50:54.859Z,196.267
2022-08-05T03:52:38.006Z,196.3
2022-08-05T03:52:38.608Z,196.3
2022-08-05T03:52:48.659Z,196.267
2022-08-05T03:52:48.982Z,196.3
2022-08-05T03:55:06.959Z,196.267
2022-08-05T03:55:49.952Z,196.3
2022-08-05T03:55:50.066Z,196.317
2022-08-05T03:55:50.219Z,196.3
2022-08-05T03:55:51.934Z,196.3
2022-08-05T03:55:52.581Z,196.3
2022-08-05T03:55:53.741Z,196.3
2022-08-05T03:56:00.779Z,196.267
2022-08-05T03:56:04.278Z,196.3
2022-08-05T03:56:04.810Z,196.3
2022-08-05T03:56:10.277Z,196.3
2022-08-05T03:56:17.899Z,196.267
2022-08-05T03:56:36.282Z,196.317
2022-08-05T03:56:58.791Z,196.3
2022-08-05T03:57:42.393Z,196.3
2022-08-05T03:57:42.591Z,196.3
2022-08-05T03:57:56.689Z,196.3
2022-08-05T03:58:16.780Z,196.267
2022-08-05T03:58:36.837Z,196.3
2022-08-05T03:58:56.918Z,196.25
2022-08-05T03:59:20.438Z,196.25
2022-08-05T03:59:46.873Z,196.3
2022-08-05T03:59:57.126Z,196.267
2022-08-05T04:00:17.190Z,196.267
2022-08-05T04:00:37.252Z,196.317
2022-08-05T04:00:57.431Z,196.3
2022-08-05T04:01:17.517Z,196.317
2022-08-05T04:01:37.547Z,196.3
2022-08-05T04:01:59.084Z,196.3
2022-08-05T04:02:37.776Z,196.3
2022-08-05T04:02:45.213Z,196.3
2022-08-05T04:02:59.253Z,196.3
2022-08-05T04:03:28.422Z,196.267
2022-08-05T04:03:37.962Z,196.3
2022-08-05T04:04:10.341Z,196.25
2022-08-05T04:04:21.304Z,196.25
2022-08-05T04:04:38.188Z,196.267
2022-08-05T04:04:58.268Z,196.217
2022-08-05T04:05:18.333Z,196.25
2022-08-05T04:05:38.517Z,196.25
2022-08-05T04:05:59.207Z,196.25
2022-08-05T04:06:18.549Z,196.267
2022-08-05T04:06:38.618Z,196.25
2022-08-05T04:06:58.723Z,196.25
2022-08-05T04:07:18.803Z,196.267
2022-08-05T04:07:57.584Z,196.25
2022-08-05T04:07:59.127Z,196.25
2022-08-05T04:08:35.053Z,196.25
2022-08-05T04:08:39.173Z,196.25
2022-08-05T04:08:59.249Z,196.25
2022-08-05T04:09:20.325Z,196.267
2022-08-05T04:09:39.424Z,196.267